createdAt,value
2022-10-09T00:01:22.737Z,2.50
2022-10-09T00:03:51.705Z,2.88
2022-10-09T00:06:22.414Z,2.10
2022-10-09T00:08:50.028Z,3.25
2022-10-09T00:11:20.798Z,2.63
2022-10-09T00:13:51.046Z,2.33
2022-10-09T00:16:19.554Z,2.65
2022-10-09T00:18:47.814Z,2.58
2022-10-09T00:21:32.155Z,2.80
2022-10-09T00:24:02.352Z,3.40
2022-10-09T00:26:31.581Z,3.15
2022-10-09T00:28:59.020Z,2.60
2022-10-09T00:31:26.772Z,2.53
2022-10-09T00:33:55.309Z,2.70
2022-10-09T00:36:25.133Z,2.28
2022-10-09T00:38:54.475Z,2.42
2022-10-09T00:41:25.377Z,2.45
2022-10-09T00:43:56.534Z,3.00
2022-10-09T00:46:35.859Z,2.80
2022-10-09T00:49:25.849Z,2.33
2022-10-09T00:51:56.739Z,2.58
2022-10-09T00:54:31.888Z,2.58
2022-10-09T00:57:00.161Z,2.70
2022-10-09T00:59:28.172Z,2.70
2022-10-09T01:01:55.429Z,2.70
2022-10-09T01:04:23.005Z,3.38
2022-10-09T01:06:56.128Z,2.53
2022-10-09T01:09:49.625Z,2.60
2022-10-09T01:12:22.563Z,2.90
2022-10-09T01:15:21.047Z,2.45
2022-10-09T01:18:21.548Z,2.80
2022-10-09T01:20:59.307Z,2.60
2022-10-09T01:23:42.035Z,2.70
2022-10-09T01:26:27.523Z,2.85
2022-10-09T01:28:59.394Z,2.35
2022-10-09T01:34:25.884Z,3.50
2022-10-09T01:36:54.946Z,2.60
2022-10-09T01:39:24.197Z,2.78
2022-10-09T01:41:55.119Z,2.90
2022-10-09T01:44:31.108Z,2.50
2022-10-09T01:46:59.686Z,3.00
2022-10-09T01:49:52.048Z,2.67
2022-10-09T01:52:27.361Z,3.55
2022-10-09T01:55:03.768Z,2.78
2022-10-09T01:57:47.095Z,2.70
2022-10-09T02:00:17.981Z,2.30
2022-10-09T02:02:48.593Z,2.10
2022-10-09T02:05:22.562Z,2.85
2022-10-09T02:07:52.532Z,2.60
2022-10-09T02:10:22.479Z,2.75
2022-10-09T02:12:58.138Z,2.80
2022-10-09T02:15:31.230Z,2.72
2022-10-09T02:18:05.230Z,3.30
2022-10-09T02:20:36.563Z,2.47
2022-10-09T02:23:08.001Z,2.70
2022-10-09T02:25:37.932Z,2.67
2022-10-09T02:28:05.896Z,2.50
2022-10-09T02:30:46.568Z,2.72
2022-10-09T02:33:13.977Z,2.72
2022-10-09T02:35:41.542Z,2.88
2022-10-09T02:38:09.045Z,2.75
2022-10-09T02:40:36.123Z,2.90
2022-10-09T02:43:05.238Z,3.33
2022-10-09T02:45:34.958Z,2.72
2022-10-09T02:48:02.255Z,2.75
2022-10-09T02:50:29.517Z,2.83
2022-10-09T02:57:29.256Z,2.65
2022-10-09T02:59:56.354Z,2.75
2022-10-09T03:02:24.337Z,2.67
2022-10-09T03:04:53.841Z,2.40
2022-10-09T03:07:23.627Z,2.70
2022-10-09T03:09:50.919Z,2.78
2022-10-09T03:12:21.417Z,2.47
2022-10-09T03:14:49.890Z,2.70
2022-10-09T03:17:17.461Z,3.08
2022-10-09T03:19:44.665Z,2.30
2022-10-09T03:22:11.861Z,2.50
2022-10-09T03:24:42.592Z,2.80
2022-10-09T03:27:09.858Z,2.80
2022-10-09T03:29:37.096Z,2.95
2022-10-09T03:32:04.298Z,2.10
2022-10-09T03:34:32.052Z,2.80
2022-10-09T03:36:59.240Z,2.90
2022-10-09T03:39:26.648Z,3.13
2022-10-09T03:41:54.030Z,2.05
2022-10-09T03:44:28.299Z,2.58
2022-10-09T03:46:58.680Z,2.40
2022-10-09T03:49:26.155Z,2.40
2022-10-09T03:51:53.536Z,2.70
2022-10-09T03:54:22.006Z,1.83
2022-10-09T03:56:49.253Z,2.60
2022-10-09T03:59:16.617Z,2.72
2022-10-09T04:01:44.199Z,2.38
2022-10-09T04:04:12.738Z,2.80
2022-10-09T04:06:40.057Z,3.00
2022-10-09T04:09:10.409Z,2.90
2022-10-09T04:11:37.876Z,2.58
2022-10-09T04:14:08.419Z,2.90
2022-10-09T04:16:36.054Z,2.15
2022-10-09T04:19:03.478Z,3.10
2022-10-09T04:21:30.994Z,2.70
2022-10-09T04:23:59.686Z,2.45
2022-10-09T04:26:27.026Z,2.70
2022-10-09T04:28:54.806Z,3.17
2022-10-09T04:31:22.232Z,2.70
2022-10-09T04:34:16.677Z,3.00
2022-10-09T04:36:44.019Z,2.65
2022-10-09T04:39:11.431Z,2.70
2022-10-09T04:41:39.204Z,2.60
2022-10-09T04:44:07.003Z,3.13
2022-10-09T04:46:39.897Z,2.25
2022-10-09T04:49:14.798Z,2.95
2022-10-09T04:51:45.816Z,2.67
2022-10-09T04:54:13.477Z,2.97
2022-10-09T04:56:40.691Z,2.70
2022-10-09T04:59:07.916Z,2.67
2022-10-09T05:01:38.269Z,2.95
2022-10-09T05:04:08.795Z,2.97
2022-10-09T05:06:36.142Z,2.72
2022-10-09T05:09:03.910Z,2.25
2022-10-09T05:11:31.358Z,2.88
2022-10-09T05:14:01.276Z,2.50
2022-10-09T05:16:37.658Z,3.20
2022-10-09T05:19:17.017Z,2.85
2022-10-09T05:21:44.339Z,2.78
2022-10-09T05:24:19.833Z,3.00
2022-10-09T05:26:47.293Z,3.08
2022-10-09T05:29:14.451Z,2.47
2022-10-09T05:31:49.154Z,3.47
2022-10-09T05:34:17.243Z,2.58
2022-10-09T05:36:54.318Z,2.35
2022-10-09T05:39:21.695Z,2.28
2022-10-09T05:41:53.276Z,2.25
2022-10-09T05:47:21.122Z,2.70
2022-10-09T05:50:06.343Z,2.65
2022-10-09T05:53:08.910Z,2.80
2022-10-09T05:55:34.865Z,2.90
2022-10-09T05:58:04.836Z,2.53
2022-10-09T06:00:37.679Z,2.30
2022-10-09T06:03:48.304Z,2.75
2022-10-09T06:06:23.803Z,2.65
2022-10-09T06:08:54.883Z,2.92
2022-10-09T06:11:37.233Z,2.85
2022-10-09T06:14:09.345Z,3.15
2022-10-09T06:16:42.198Z,2.95
2022-10-09T06:19:12.760Z,2.25
2022-10-09T06:21:40.379Z,2.90
2022-10-09T06:24:08.618Z,2.55
2022-10-09T06:26:35.985Z,2.83
2022-10-09T06:29:03.910Z,2.92
2022-10-09T06:31:33.956Z,2.85
2022-10-09T06:34:03.959Z,2.95
2022-10-09T06:36:34.478Z,2.95
2022-10-09T06:39:05.740Z,3.15
2022-10-09T06:41:34.186Z,2.63
2022-10-09T06:44:16.866Z,2.92
2022-10-09T06:46:50.302Z,2.90
2022-10-09T06:49:18.045Z,3.65
2022-10-09T06:51:46.856Z,2.63
2022-10-09T06:54:17.634Z,2.63
2022-10-09T06:56:45.346Z,3.35
2022-10-09T06:59:13.511Z,3.03
2022-10-09T07:01:40.920Z,2.80
2022-10-09T07:04:15.608Z,3.10
2022-10-09T07:06:48.008Z,3.53
2022-10-09T07:09:16.612Z,3.08
2022-10-09T07:11:49.529Z,3.10
2022-10-09T07:14:17.533Z,3.20
2022-10-09T07:16:46.920Z,2.85
2022-10-09T07:19:16.121Z,2.58
2022-10-09T07:21:45.672Z,3.05
2022-10-09T07:24:14.253Z,2.53
2022-10-09T07:26:44.287Z,2.03
2022-10-09T07:29:14.888Z,2.13
2022-10-09T07:31:42.176Z,2.40
2022-10-09T07:34:09.592Z,3.35
2022-10-09T07:36:38.083Z,2.50
2022-10-09T07:39:06.076Z,2.88
2022-10-09T07:41:35.367Z,3.08
2022-10-09T07:44:04.937Z,2.95
2022-10-09T07:46:34.012Z,2.58
2022-10-09T07:49:02.548Z,2.70
2022-10-09T07:51:30.885Z,2.72
2022-10-09T07:54:02.460Z,2.85
2022-10-09T07:56:35.512Z,2.97
2022-10-09T07:59:06.024Z,2.75
2022-10-09T08:01:35.587Z,2.80
2022-10-09T08:04:08.800Z,2.75
2022-10-09T08:06:36.581Z,3.13
2022-10-09T08:09:07.587Z,2.65
2022-10-09T08:14:04.165Z,2.58
2022-10-09T08:16:32.546Z,2.83
2022-10-09T08:19:01.675Z,2.40
2022-10-09T08:21:29.812Z,2.72
2022-10-09T08:23:59.536Z,3.20
2022-10-09T08:26:29.646Z,2.63
2022-10-09T08:29:10.039Z,2.60
2022-10-09T08:31:40.386Z,2.70
2022-10-09T08:34:10.830Z,2.25
2022-10-09T08:36:38.185Z,2.65
2022-10-09T08:39:17.609Z,2.40
2022-10-09T08:41:54.334Z,2.78
2022-10-09T08:44:31.955Z,2.63
2022-10-09T08:47:11.473Z,2.42
2022-10-09T08:49:54.256Z,2.72
2022-10-09T08:52:24.364Z,2.55
2022-10-09T08:54:55.640Z,3.00
2022-10-09T08:57:23.750Z,2.80
2022-10-09T08:59:53.830Z,3.05
2022-10-09T09:02:36.674Z,2.63
2022-10-09T09:05:44.849Z,3.00
2022-10-09T09:08:27.549Z,3.03
2022-10-09T09:11:21.580Z,2.67
2022-10-09T09:13:58.505Z,3.08
2022-10-09T09:16:41.411Z,2.70
2022-10-09T09:19:43.805Z,2.72
2022-10-09T09:22:14.536Z,2.67
2022-10-09T09:24:51.622Z,2.22
2022-10-09T09:27:21.819Z,3.20
2022-10-09T09:29:59.573Z,2.85
2022-10-09T09:32:29.693Z,2.80
2022-10-09T09:35:43.389Z,2.50
2022-10-09T09:38:10.685Z,2.20
2022-10-09T09:40:38.934Z,2.78
2022-10-09T09:43:24.999Z,2.50
2022-10-09T09:45:57.992Z,2.47
2022-10-09T09:48:36.537Z,2.33
2022-10-09T09:51:28.040Z,2.42
2022-10-09T09:54:06.848Z,2.15
2022-10-09T09:57:10.268Z,2.55
2022-10-09T09:59:38.650Z,2.30
2022-10-09T10:02:16.227Z,2.38
2022-10-09T10:05:17.602Z,2.55
2022-10-09T10:07:44.884Z,2.67
2022-10-09T10:10:24.963Z,1.95
2022-10-09T10:12:56.459Z,2.42
2022-10-09T10:15:26.591Z,2.50
2022-10-09T10:18:12.631Z,1.90
2022-10-09T10:20:49.270Z,2.08
2022-10-09T10:23:24.443Z,2.17
2022-10-09T10:25:57.340Z,2.20
2022-10-09T10:28:36.047Z,2.05
2022-10-09T10:31:07.983Z,2.28
2022-10-09T10:33:37.677Z,2.35
2022-10-09T10:36:10.349Z,2.17
2022-10-09T10:38:53.053Z,2.15
2022-10-09T10:41:36.800Z,2.17
2022-10-09T10:44:33.944Z,1.90
2022-10-09T10:47:14.815Z,1.80
2022-10-09T10:49:42.295Z,2.00
2022-10-09T10:52:57.224Z,1.90
2022-10-09T10:55:40.879Z,2.08
2022-10-09T10:58:28.425Z,1.90
2022-10-09T11:01:14.509Z,2.13
2022-10-09T11:04:08.039Z,2.30
2022-10-09T11:06:54.062Z,2.00
2022-10-09T11:09:32.601Z,2.15
2022-10-09T11:12:24.665Z,1.88
2022-10-09T11:15:48.313Z,2.38
2022-10-09T11:18:45.097Z,1.80
2022-10-09T11:21:40.809Z,1.80
2022-10-09T11:24:49.011Z,2.30
2022-10-09T11:27:33.728Z,2.30
2022-10-09T11:30:05.965Z,2.70
2022-10-09T11:35:15.909Z,2.47
2022-10-09T11:40:37.662Z,2.20
2022-10-09T11:43:26.531Z,2.33
2022-10-09T11:46:02.676Z,2.63
2022-10-09T11:48:38.025Z,2.20
2022-10-09T11:51:50.890Z,2.60
2022-10-09T11:54:23.199Z,2.50
2022-10-09T11:56:53.873Z,2.58
2022-10-09T11:59:30.546Z,2.30
2022-10-09T12:02:23.785Z,1.90
2022-10-09T12:04:55.396Z,2.65
2022-10-09T12:07:28.240Z,2.63
2022-10-09T12:10:23.880Z,2.67
2022-10-09T12:13:06.977Z,2.42
2022-10-09T12:15:40.151Z,3.00
2022-10-09T12:18:23.462Z,2.60
2022-10-09T12:20:54.922Z,3.08
2022-10-09T12:25:56.477Z,3.25
2022-10-09T12:28:52.235Z,3.20
2022-10-09T12:31:33.293Z,2.95
2022-10-09T12:34:52.132Z,3.05
2022-10-09T12:37:22.158Z,3.17
2022-10-09T12:39:50.424Z,3.33
2022-10-09T12:42:25.440Z,3.92
2022-10-09T12:44:55.569Z,3.22
2022-10-09T12:47:29.614Z,3.20
2022-10-09T12:50:05.076Z,3.42
2022-10-09T12:52:33.337Z,3.67
2022-10-09T12:55:04.865Z,3.17
2022-10-09T12:57:33.108Z,3.40
2022-10-09T13:00:00.638Z,3.58
2022-10-09T13:02:28.955Z,3.53
2022-10-09T13:05:02.411Z,4.00
2022-10-09T13:07:32.760Z,3.78
2022-10-09T13:10:04.650Z,3.58
2022-10-09T13:12:40.439Z,2.88
2022-10-09T13:15:32.849Z,3.90
2022-10-09T13:18:14.051Z,4.82
2022-10-09T13:20:41.503Z,3.97
2022-10-09T13:23:28.969Z,4.47
2022-10-09T13:25:59.981Z,3.92
2022-10-09T13:28:31.890Z,4.18
2022-10-09T13:31:07.634Z,4.32
2022-10-09T13:33:41.381Z,4.50
2022-10-09T13:36:12.342Z,4.20
2022-10-09T13:38:39.926Z,3.95
2022-10-09T13:41:13.829Z,4.57
2022-10-09T13:43:42.677Z,3.40
2022-10-09T13:46:10.297Z,3.33
2022-10-09T13:48:38.200Z,2.38
2022-10-09T13:51:06.686Z,2.55
2022-10-09T13:53:35.895Z,2.42
2022-10-09T13:56:04.108Z,2.15
2022-10-09T13:58:31.811Z,2.85
2022-10-09T14:00:59.380Z,4.60
2022-10-09T14:03:27.834Z,2.50
2022-10-09T14:06:00.091Z,2.97
2022-10-09T14:08:27.557Z,3.35
2022-10-09T14:10:55.322Z,2.97
2022-10-09T14:13:23.520Z,2.88
2022-10-09T14:15:53.259Z,3.45
2022-10-09T14:18:20.468Z,2.88
2022-10-09T14:20:47.996Z,3.30
2022-10-09T14:23:15.419Z,3.30
2022-10-09T14:25:42.657Z,2.50
2022-10-09T14:28:10.874Z,2.60
2022-10-09T14:30:43.757Z,2.90
2022-10-09T14:33:12.995Z,2.33
2022-10-09T14:35:40.281Z,2.42
2022-10-09T14:38:09.943Z,2.03
2022-10-09T14:40:43.537Z,3.08
2022-10-09T14:43:12.324Z,4.95
2022-10-09T14:45:40.904Z,2.40
2022-10-09T14:48:08.310Z,3.15
2022-10-09T14:50:36.565Z,2.65
2022-10-09T14:53:04.315Z,2.90
2022-10-09T14:55:34.452Z,3.15
2022-10-09T14:58:01.900Z,3.22
2022-10-09T15:00:29.611Z,3.05
2022-10-09T15:02:59.707Z,3.53
2022-10-09T15:05:41.482Z,3.38
2022-10-09T15:08:31.441Z,2.83
2022-10-09T15:10:59.135Z,2.72
2022-10-09T15:13:26.789Z,3.00
2022-10-09T15:16:02.232Z,2.80
2022-10-09T15:18:31.704Z,4.00
2022-10-09T15:20:59.978Z,2.83
2022-10-09T15:23:37.009Z,4.30
2022-10-09T15:26:09.175Z,3.38
2022-10-09T15:28:41.784Z,3.03
2022-10-09T15:31:28.749Z,3.80
2022-10-09T15:33:58.974Z,4.88
2022-10-09T15:36:27.567Z,3.38
2022-10-09T15:38:55.149Z,4.10
2022-10-09T15:41:26.608Z,3.40
2022-10-09T15:43:58.928Z,3.58
2022-10-09T15:46:55.866Z,3.50
2022-10-09T15:51:59.416Z,3.45
2022-10-09T15:53:22.255Z,3.67
2022-10-09T15:56:07.884Z,3.95
2022-10-09T15:58:38.129Z,4.00
2022-10-09T16:01:09.634Z,4.38
2022-10-09T16:03:39.235Z,3.92
2022-10-09T16:06:13.897Z,4.20
2022-10-09T16:08:45.584Z,4.88
2022-10-09T16:11:18.006Z,4.80
2022-10-09T16:13:48.412Z,3.33
2022-10-09T16:16:21.857Z,4.00
2022-10-09T16:18:49.967Z,3.80
2022-10-09T16:21:20.188Z,3.80
2022-10-09T16:23:48.650Z,3.90
2022-10-09T16:26:18.752Z,3.80
2022-10-09T16:28:47.681Z,4.38
2022-10-09T16:31:26.287Z,4.85
2022-10-09T16:33:56.681Z,4.80
2022-10-09T16:36:24.339Z,4.40
2022-10-09T16:39:02.685Z,4.00
2022-10-09T16:41:31.024Z,3.92
2022-10-09T16:44:00.446Z,4.35
2022-10-09T16:46:29.152Z,5.18
2022-10-09T16:48:58.542Z,5.25
2022-10-09T16:51:34.696Z,4.85
2022-10-09T16:54:07.319Z,5.13
2022-10-09T16:56:40.679Z,5.60
2022-10-09T16:59:12.010Z,4.90
2022-10-09T17:01:46.831Z,5.32
2022-10-09T17:04:17.421Z,6.35
2022-10-09T17:06:55.587Z,4.95
2022-10-09T17:09:26.938Z,5.30
2022-10-09T17:11:55.180Z,5.80
2022-10-09T17:15:41.699Z,5.57
2022-10-09T17:18:12.161Z,5.63
2022-10-09T17:20:41.380Z,5.43
2022-10-09T17:23:10.682Z,5.97
2022-10-09T17:25:46.128Z,5.80
2022-10-09T17:28:15.129Z,5.60
2022-10-09T17:30:42.375Z,5.93
2022-10-09T17:33:19.648Z,6.05
2022-10-09T17:35:47.781Z,6.20
2022-10-09T17:38:17.812Z,5.75
2022-10-09T17:40:46.684Z,5.88
2022-10-09T17:43:16.504Z,5.90
2022-10-09T17:45:44.224Z,5.38
2022-10-09T17:48:15.108Z,6.70
2022-10-09T17:50:54.621Z,5.90
2022-10-09T17:53:27.418Z,4.85
2022-10-09T17:55:58.664Z,5.10
2022-10-09T17:58:26.845Z,5.32
2022-10-09T18:00:54.457Z,5.05
2022-10-09T18:03:23.698Z,5.43
2022-10-09T18:05:53.434Z,4.38
2022-10-09T18:08:20.667Z,4.47
2022-10-09T18:11:00.508Z,4.40
2022-10-09T18:13:29.036Z,4.70
2022-10-09T18:15:56.551Z,4.13
2022-10-09T18:18:24.088Z,4.35
2022-10-09T18:20:51.576Z,5.05
2022-10-09T18:23:22.748Z,4.80
2022-10-09T18:25:50.270Z,4.78
2022-10-09T18:28:19.587Z,4.38
2022-10-09T18:30:47.212Z,4.50
2022-10-09T18:33:14.904Z,4.68
2022-10-09T18:35:43.514Z,5.43
2022-10-09T18:38:11.479Z,5.72
2022-10-09T18:40:45.760Z,4.43
2022-10-09T18:43:14.138Z,4.50
2022-10-09T18:45:45.192Z,4.95
2022-10-09T18:48:14.675Z,4.90
2022-10-09T18:50:44.366Z,4.47
2022-10-09T18:53:12.240Z,3.92
2022-10-09T18:55:42.529Z,4.60
2022-10-09T18:58:10.873Z,4.40
2022-10-09T19:00:39.607Z,4.30
2022-10-09T19:03:08.146Z,4.45
2022-10-09T19:05:36.282Z,4.38
2022-10-09T19:08:04.197Z,4.20
2022-10-09T19:10:31.622Z,4.40
2022-10-09T19:13:00.365Z,3.97
2022-10-09T19:15:27.649Z,4.38
2022-10-09T19:17:54.911Z,4.50
2022-10-09T19:20:22.170Z,4.18
2022-10-09T19:22:49.664Z,4.05
2022-10-09T19:25:17.204Z,4.35
2022-10-09T19:27:44.531Z,4.47
2022-10-09T19:30:12.487Z,4.22
2022-10-09T19:32:39.796Z,4.55
2022-10-09T19:35:08.102Z,4.70
2022-10-09T19:37:35.837Z,4.43
2022-10-09T19:40:02.924Z,4.43
2022-10-09T19:42:33.632Z,4.35
2022-10-09T19:45:01.312Z,4.28
2022-10-09T19:47:29.009Z,4.50
2022-10-09T19:49:56.234Z,4.75
2022-10-09T19:52:24.513Z,4.45
2022-10-09T19:55:28.864Z,4.55
2022-10-09T19:57:58.480Z,4.57
2022-10-09T20:00:28.265Z,4.93
2022-10-09T20:02:57.673Z,4.05
2022-10-09T20:05:29.413Z,5.03
2022-10-09T20:07:57.475Z,4.47
2022-10-09T20:10:26.212Z,4.72
2022-10-09T20:12:55.465Z,4.70
2022-10-09T20:15:23.145Z,4.47
2022-10-09T20:17:50.284Z,4.50
2022-10-09T20:20:18.140Z,4.75
2022-10-09T20:22:45.383Z,4.95
2022-10-09T20:25:12.786Z,5.05
2022-10-09T20:27:41.140Z,5.13
2022-10-09T20:30:09.063Z,4.68
2022-10-09T20:32:40.062Z,4.57
2022-10-09T20:35:10.329Z,4.70
2022-10-09T20:37:37.808Z,5.20
2022-10-09T20:40:05.923Z,4.78
2022-10-09T20:42:33.236Z,4.60
2022-10-09T20:45:01.984Z,5.00
2022-10-09T20:47:29.316Z,4.90
2022-10-09T20:49:59.238Z,4.47
2022-10-09T20:52:26.600Z,4.30
2022-10-09T20:54:55.553Z,4.10
2022-10-09T20:57:22.993Z,4.15
2022-10-09T20:59:50.656Z,4.60
2022-10-09T21:02:17.954Z,4.38
2022-10-09T21:04:46.801Z,4.35
2022-10-09T21:07:14.037Z,3.90
2022-10-09T21:09:41.259Z,4.13
2022-10-09T21:12:08.700Z,3.65
2022-10-09T21:14:38.662Z,3.42
2022-10-09T21:17:06.014Z,3.67
2022-10-09T21:19:34.012Z,3.70
2022-10-09T21:22:01.380Z,3.67
2022-10-09T21:24:34.701Z,3.53
2022-10-09T21:27:02.812Z,3.92
2022-10-09T21:29:30.188Z,3.85
2022-10-09T21:31:57.530Z,3.40
2022-10-09T21:34:27.326Z,3.72
2022-10-09T21:37:19.827Z,5.00
2022-10-09T21:39:42.893Z,4.10
2022-10-09T21:42:10.107Z,3.50
2022-10-09T21:44:37.595Z,3.95
2022-10-09T21:47:05.241Z,3.90
2022-10-09T21:49:32.770Z,3.63
2022-10-09T21:52:00.256Z,4.38
2022-10-09T21:54:27.897Z,3.50
2022-10-09T21:56:55.427Z,3.60
2022-10-09T21:59:22.637Z,3.15
2022-10-09T22:01:50.664Z,3.40
2022-10-09T22:04:20.478Z,3.15
2022-10-09T22:06:48.298Z,3.53
2022-10-09T22:09:15.607Z,2.80
2022-10-09T22:11:44.846Z,2.83
2022-10-09T22:14:14.277Z,2.95
2022-10-09T22:16:41.900Z,3.10
2022-10-09T22:19:09.390Z,3.45
2022-10-09T22:21:36.778Z,3.25
2022-10-09T22:24:05.463Z,2.80
2022-10-09T22:26:32.810Z,2.70
2022-10-09T22:29:00.890Z,2.97
2022-10-09T22:31:29.168Z,2.70
2022-10-09T22:34:02.375Z,3.30
2022-10-09T22:36:32.317Z,2.67
2022-10-09T22:39:02.145Z,2.60
2022-10-09T22:41:30.850Z,2.55
2022-10-09T22:44:01.007Z,2.60
2022-10-09T22:46:31.548Z,2.70
2022-10-09T22:48:58.951Z,2.30
2022-10-09T22:51:27.897Z,3.00
2022-10-09T22:54:00.521Z,2.42
2022-10-09T22:56:31.355Z,2.80
2022-10-09T22:58:59.099Z,2.95
2022-10-09T23:01:39.055Z,2.75
2022-10-09T23:04:11.810Z,3.17
2022-10-09T23:06:40.355Z,2.65
2022-10-09T23:09:10.844Z,2.67
2022-10-09T23:11:38.009Z,2.72
2022-10-09T23:14:06.894Z,2.65
2022-10-09T23:16:34.767Z,3.00
2022-10-09T23:19:06.450Z,2.67
2022-10-09T23:21:35.757Z,3.03
2022-10-09T23:28:09.642Z,2.88
2022-10-09T23:30:37.525Z,2.40
2022-10-09T23:33:06.292Z,2.67
2022-10-09T23:35:33.749Z,2.40
2022-10-09T23:38:00.894Z,2.60
2022-10-09T23:40:28.315Z,2.50
2022-10-09T23:42:55.775Z,2.97
2022-10-09T23:45:23.094Z,2.60
2022-10-09T23:47:50.212Z,2.85
2022-10-09T23:50:17.620Z,3.08
2022-10-09T23:52:45.040Z,2.30
2022-10-09T23:55:12.309Z,2.35
2022-10-09T23:57:39.848Z,2.47
